sensor_id;sensor_type;location;lat;lon;timestamp;pressure;altitude;pressure_sealevel;temperature;humidity
23361;BME280;11852;50.082;18.554;2022-07-29T00:00:22;98778.5;;;18.23;65.56
23361;BME280;11852;50.082;18.554;2022-07-29T00:01:27;98778.0;;;18.25;65.61
23361;BME280;11852;50.082;18.554;2022-07-29T00:02:32;98772.5;;;18.23;65.6
23361;BME280;11852;50.082;18.554;2022-07-29T00:03:42;98772.0;;;18.24;65.59
23361;BME280;11852;50.082;18.554;2022-07-29T00:04:47;98769.0;;;18.25;65.69
23361;BME280;11852;50.082;18.554;2022-07-29T00:05:52;98762.5;;;18.12;66.02
23361;BME280;11852;50.082;18.554;2022-07-29T00:06:57;98767.51;;;18.06;66.28
23361;BME280;11852;50.082;18.554;2022-07-29T00:08:01;98766.0;;;18.08;66.16
23361;BME280;11852;50.082;18.554;2022-07-29T00:09:06;98764.5;;;18.07;66.49
23361;BME280;11852;50.082;18.554;2022-07-29T00:10:12;98763.0;;;18.1;66.61
23361;BME280;11852;50.082;18.554;2022-07-29T00:11:17;98763.0;;;18.1;66.61
23361;BME280;11852;50.082;18.554;2022-07-29T00:12:24;98766.0;;;18.08;66.71
23361;BME280;11852;50.082;18.554;2022-07-29T00:13:27;98767.51;;;18.1;66.83
23361;BME280;11852;50.082;18.554;2022-07-29T00:14:33;98764.5;;;18.08;66.94
23361;BME280;11852;50.082;18.554;2022-07-29T00:15:38;98765.0;;;18.12;66.73
23361;BME280;11852;50.082;18.554;2022-07-29T00:16:44;98767.5;;;18.14;66.67
23361;BME280;11852;50.082;18.554;2022-07-29T00:17:49;98768.01;;;18.18;66.51
23361;BME280;11852;50.082;18.554;2022-07-29T00:18:56;98766.0;;;18.11;66.86
23361;BME280;11852;50.082;18.554;2022-07-29T00:19:59;98764.5;;;18.15;66.71
23361;BME280;11852;50.082;18.554;2022-07-29T00:21:05;98763.5;;;18.13;66.64
23361;BME280;11852;50.082;18.554;2022-07-29T00:22:10;98763.5;;;18.02;66.83
23361;BME280;11852;50.082;18.554;2022-07-29T00:23:16;98766.0;;;17.97;66.84
23361;BME280;11852;50.082;18.554;2022-07-29T00:24:22;98768.01;;;17.97;66.79
23361;BME280;11852;50.082;18.554;2022-07-29T00:25:27;98765.0;;;18.06;66.42
23361;BME280;11852;50.082;18.554;2022-07-29T00:26:32;98766.5;;;18.1;66.45
23361;BME280;11852;50.082;18.554;2022-07-29T00:27:37;98766.5;;;18.02;66.65
23361;BME280;11852;50.082;18.554;2022-07-29T00:28:42;98771.0;;;18.06;66.55
23361;BME280;11852;50.082;18.554;2022-07-29T00:29:49;98769.0;;;18.06;66.63
23361;BME280;11852;50.082;18.554;2022-07-29T00:30:54;98768.5;;;18.06;66.47
23361;BME280;11852;50.082;18.554;2022-07-29T00:32:03;98767.01;;;18.05;66.58
23361;BME280;11852;50.082;18.554;2022-07-29T00:33:07;98768.01;;;18.08;66.53
23361;BME280;11852;50.082;18.554;2022-07-29T00:34:17;98766.0;;;18.06;66.64
23361;BME280;11852;50.082;18.554;2022-07-29T00:35:27;98768.01;;;18.01;66.76
23361;BME280;11852;50.082;18.554;2022-07-29T00:36:32;98770.5;;;18.04;66.71
23361;BME280;11852;50.082;18.554;2022-07-29T00:37:37;98766.0;;;18.03;66.72
23361;BME280;11852;50.082;18.554;2022-07-29T00:38:42;98766.5;;;18.01;66.71
23361;BME280;11852;50.082;18.554;2022-07-29T00:39:48;98765.0;;;18.02;66.73
23361;BME280;11852;50.082;18.554;2022-07-29T00:40:53;98764.0;;;18.05;66.61
23361;BME280;11852;50.082;18.554;2022-07-29T00:42:02;98760.0;;;18.03;66.88
23361;BME280;11852;50.082;18.554;2022-07-29T00:43:04;98762.0;;;17.98;67.21
23361;BME280;11852;50.082;18.554;2022-07-29T00:44:09;98759.0;;;17.97;67.13
23361;BME280;11852;50.082;18.554;2022-07-29T00:45:14;98755.5;;;17.99;67.13
23361;BME280;11852;50.082;18.554;2022-07-29T00:46:18;98757.99;;;18.01;67.24
23361;BME280;11852;50.082;18.554;2022-07-29T00:47:23;98757.0;;;17.98;67.53
23361;BME280;11852;50.082;18.554;2022-07-29T00:48:28;98756.5;;;17.98;67.83
23361;BME280;11852;50.082;18.554;2022-07-29T00:49:33;98759.0;;;17.94;67.76
23361;BME280;11852;50.082;18.554;2022-07-29T00:50:43;98758.0;;;17.94;67.78
23361;BME280;11852;50.082;18.554;2022-07-29T00:51:49;98757.49;;;17.93;68.11
23361;BME280;11852;50.082;18.554;2022-07-29T00:52:54;98756.5;;;18.01;67.9
23361;BME280;11852;50.082;18.554;2022-07-29T00:53:59;98752.0;;;18.0;68.0
23361;BME280;11852;50.082;18.554;2022-07-29T00:55:05;98750.0;;;18.01;67.83
23361;BME280;11852;50.082;18.554;2022-07-29T00:56:14;98750.0;;;17.95;68.05
23361;BME280;11852;50.082;18.554;2022-07-29T00:57:19;98745.49;;;17.99;68.01
23361;BME280;11852;50.082;18.554;2022-07-29T00:58:25;98748.5;;;17.97;68.22
23361;BME280;11852;50.082;18.554;2022-07-29T00:59:33;98749.0;;;17.94;68.17
23361;BME280;11852;50.082;18.554;2022-07-29T01:00:37;98751.5;;;17.92;68.18
23361;BME280;11852;50.082;18.554;2022-07-29T01:01:42;98751.5;;;17.92;68.07
23361;BME280;11852;50.082;18.554;2022-07-29T01:02:51;98752.5;;;17.92;68.08
23361;BME280;11852;50.082;18.554;2022-07-29T01:04:01;98752.5;;;17.89;68.3
23361;BME280;11852;50.082;18.554;2022-07-29T01:05:06;98750.0;;;17.92;68.1
23361;BME280;11852;50.082;18.554;2022-07-29T01:06:11;98749.0;;;17.92;67.95
23361;BME280;11852;50.082;18.554;2022-07-29T01:07:16;98749.0;;;17.92;67.82
23361;BME280;11852;50.082;18.554;2022-07-29T01:08:20;98750.0;;;17.93;67.82
23361;BME280;11852;50.082;18.554;2022-07-29T01:09:26;98745.49;;;17.99;67.44
23361;BME280;11852;50.082;18.554;2022-07-29T01:10:45;98742.0;;;17.97;67.74
23361;BME280;11852;50.082;18.554;2022-07-29T01:11:52;98748.0;;;17.92;67.71
23361;BME280;11852;50.082;18.554;2022-07-29T01:12:58;98743.5;;;17.95;67.59
23361;BME280;11852;50.082;18.554;2022-07-29T01:14:02;98745.0;;;17.92;67.79
23361;BME280;11852;50.082;18.554;2022-07-29T01:15:08;98744.5;;;17.95;67.64
23361;BME280;11852;50.082;18.554;2022-07-29T01:16:15;98741.5;;;17.95;67.53
23361;BME280;11852;50.082;18.554;2022-07-29T01:17:26;98740.5;;;17.97;67.61
23361;BME280;11852;50.082;18.554;2022-07-29T01:18:32;98740.5;;;17.97;67.53
23361;BME280;11852;50.082;18.554;2022-07-29T01:21:59;98743.0;;;17.97;67.39
23361;BME280;11852;50.082;18.554;2022-07-29T01:24:19;98744.99;;;18.08;66.74
23361;BME280;11852;50.082;18.554;2022-07-29T01:27:41;98742.01;;;18.01;67.04
23361;BME280;11852;50.082;18.554;2022-07-29T01:29:56;98743.0;;;18.04;67.04
23361;BME280;11852;50.082;18.554;2022-07-29T01:31:01;98741.5;;;18.06;66.97
23361;BME280;11852;50.082;18.554;2022-07-29T01:32:06;98739.0;;;18.04;66.96
23361;BME280;11852;50.082;18.554;2022-07-29T01:33:11;98741.5;;;18.05;66.86
23361;BME280;11852;50.082;18.554;2022-07-29T01:34:19;98738.0;;;17.97;67.16
23361;BME280;11852;50.082;18.554;2022-07-29T01:35:30;98737.0;;;17.96;67.13
23361;BME280;11852;50.082;18.554;2022-07-29T01:39:17;98739.5;;;17.95;67.1
23361;BME280;11852;50.082;18.554;2022-07-29T01:40:22;98738.5;;;18.01;66.83
23361;BME280;11852;50.082;18.554;2022-07-29T01:41:25;98736.5;;;17.98;67.01
23361;BME280;11852;50.082;18.554;2022-07-29T01:44:56;98733.5;;;17.89;67.31
23361;BME280;11852;50.082;18.554;2022-07-29T01:46:01;98732.0;;;17.85;67.52
23361;BME280;11852;50.082;18.554;2022-07-29T01:47:10;98731.5;;;17.87;67.42
23361;BME280;11852;50.082;18.554;2022-07-29T01:48:16;98729.51;;;17.84;67.49
23361;BME280;11852;50.082;18.554;2022-07-29T01:49:27;98730.01;;;17.8;67.46
23361;BME280;11852;50.082;18.554;2022-07-29T01:50:34;98730.01;;;17.74;67.62
23361;BME280;11852;50.082;18.554;2022-07-29T01:51:47;98732.5;;;17.77;67.48
23361;BME280;11852;50.082;18.554;2022-07-29T01:52:52;98729.51;;;17.76;67.58
23361;BME280;11852;50.082;18.554;2022-07-29T01:55:14;98730.51;;;17.78;67.57
23361;BME280;11852;50.082;18.554;2022-07-29T01:56:18;98730.01;;;17.73;67.58
23361;BME280;11852;50.082;18.554;2022-07-29T01:57:25;98729.0;;;17.76;67.69
23361;BME280;11852;50.082;18.554;2022-07-29T01:58:28;98728.0;;;17.74;67.57
23361;BME280;11852;50.082;18.554;2022-07-29T01:59:33;98727.0;;;17.74;67.46
23361;BME280;11852;50.082;18.554;2022-07-29T02:00:38;98727.0;;;17.74;67.21
23361;BME280;11852;50.082;18.554;2022-07-29T02:01:44;98725.5;;;17.69;67.33
23361;BME280;11852;50.082;18.554;2022-07-29T02:02:48;98726.5;;;17.73;67.23
23361;BME280;11852;50.082;18.554;2022-07-29T02:03:53;98723.0;;;17.73;67.24
23361;BME280;11852;50.082;18.554;2022-07-29T02:04:58;98723.0;;;17.63;67.55
23361;BME280;11852;50.082;18.554;2022-07-29T02:06:04;98723.5;;;17.68;67.25
23361;BME280;11852;50.082;18.554;2022-07-29T02:07:12;98720.49;;;17.55;67.54
23361;BME280;11852;50.082;18.554;2022-07-29T02:08:17;98720.49;;;17.49;67.79
23361;BME280;11852;50.082;18.554;2022-07-29T02:09:21;98718.0;;;17.5;67.49
23361;BME280;11852;50.082;18.554;2022-07-29T02:10:28;98715.5;;;17.48;67.42
23361;BME280;11852;50.082;18.554;2022-07-29T02:11:32;98714.5;;;17.5;67.24
23361;BME280;11852;50.082;18.554;2022-07-29T02:12:37;98711.5;;;17.44;67.24
23361;BME280;11852;50.082;18.554;2022-07-29T02:13:41;98713.0;;;17.4;67.25
23361;BME280;11852;50.082;18.554;2022-07-29T02:14:51;98713.0;;;17.51;66.82
23361;BME280;11852;50.082;18.554;2022-07-29T02:15:57;98710.5;;;17.55;66.67
23361;BME280;11852;50.082;18.554;2022-07-29T02:17:02;98713.5;;;17.55;66.64
23361;BME280;11852;50.082;18.554;2022-07-29T02:18:08;98714.0;;;17.55;66.65
23361;BME280;11852;50.082;18.554;2022-07-29T02:19:11;98712.0;;;17.54;66.65
23361;BME280;11852;50.082;18.554;2022-07-29T02:20:17;98715.0;;;17.58;66.46
23361;BME280;11852;50.082;18.554;2022-07-29T02:21:25;98714.0;;;17.55;66.38
23361;BME280;11852;50.082;18.554;2022-07-29T02:22:31;98717.5;;;17.53;66.43
23361;BME280;11852;50.082;18.554;2022-07-29T02:23:38;98718.5;;;17.56;66.25
23361;BME280;11852;50.082;18.554;2022-07-29T02:24:41;98718.0;;;17.47;66.35
23361;BME280;11852;50.082;18.554;2022-07-29T02:25:50;98719.0;;;17.47;66.37
23361;BME280;11852;50.082;18.554;2022-07-29T02:26:55;98719.5;;;17.5;66.1
23361;BME280;11852;50.082;18.554;2022-07-29T02:27:59;98720.5;;;17.49;66.1
23361;BME280;11852;50.082;18.554;2022-07-29T02:29:04;98719.0;;;17.49;66.08
23361;BME280;11852;50.082;18.554;2022-07-29T02:30:08;98721.5;;;17.42;66.27
23361;BME280;11852;50.082;18.554;2022-07-29T02:31:13;98724.5;;;17.49;66.17
23361;BME280;11852;50.082;18.554;2022-07-29T02:32:18;98721.0;;;17.51;65.86
23361;BME280;11852;50.082;18.554;2022-07-29T02:33:23;98722.0;;;17.41;65.95
23361;BME280;11852;50.082;18.554;2022-07-29T02:34:30;98720.5;;;17.48;65.39
23361;BME280;11852;50.082;18.554;2022-07-29T02:35:35;98718.0;;;17.48;65.36
23361;BME280;11852;50.082;18.554;2022-07-29T02:36:40;98719.5;;;17.46;65.44
23361;BME280;11852;50.082;18.554;2022-07-29T02:37:45;98719.0;;;17.39;65.6
23361;BME280;11852;50.082;18.554;2022-07-29T02:38:51;98719.5;;;17.29;65.86
23361;BME280;11852;50.082;18.554;2022-07-29T02:39:56;98718.0;;;17.37;65.5
23361;BME280;11852;50.082;18.554;2022-07-29T02:41:05;98716.5;;;17.36;65.58
23361;BME280;11852;50.082;18.554;2022-07-29T02:42:10;98714.0;;;17.38;65.57
23361;BME280;11852;50.082;18.554;2022-07-29T02:43:13;98713.5;;;17.41;65.37
23361;BME280;11852;50.082;18.554;2022-07-29T02:44:23;98713.0;;;17.37;65.36
23361;BME280;11852;50.082;18.554;2022-07-29T02:45:24;98714.5;;;17.43;65.29
23361;BME280;11852;50.082;18.554;2022-07-29T02:46:30;98712.5;;;17.38;65.54
23361;BME280;11852;50.082;18.554;2022-07-29T02:47:41;98711.5;;;17.39;65.49
23361;BME280;11852;50.082;18.554;2022-07-29T02:48:51;98712.5;;;17.4;65.65
23361;BME280;11852;50.082;18.554;2022-07-29T02:51:07;98714.0;;;17.31;65.93
23361;BME280;11852;50.082;18.554;2022-07-29T02:52:18;98710.0;;;17.34;65.86
23361;BME280;11852;50.082;18.554;2022-07-29T02:53:22;98709.0;;;17.32;65.76
23361;BME280;11852;50.082;18.554;2022-07-29T02:54:31;98707.0;;;17.33;65.66
23361;BME280;11852;50.082;18.554;2022-07-29T02:55:42;98704.5;;;17.35;65.41
23361;BME280;11852;50.082;18.554;2022-07-29T02:56:45;98707.5;;;17.39;65.39
23361;BME280;11852;50.082;18.554;2022-07-29T02:59:04;98705.5;;;17.35;65.06
23361;BME280;11852;50.082;18.554;2022-07-29T03:00:09;98704.51;;;17.32;65.22
23361;BME280;11852;50.082;18.554;2022-07-29T03:01:22;98705.0;;;17.28;65.27
23361;BME280;11852;50.082;18.554;2022-07-29T03:02:21;98706.5;;;17.28;65.19
23361;BME280;11852;50.082;18.554;2022-07-29T03:03:27;98705.5;;;17.24;65.38
23361;BME280;11852;50.082;18.554;2022-07-29T03:04:32;98704.0;;;17.26;65.35
23361;BME280;11852;50.082;18.554;2022-07-29T03:05:37;98704.0;;;17.25;65.36
23361;BME280;11852;50.082;18.554;2022-07-29T03:06:42;98704.0;;;17.23;65.42
23361;BME280;11852;50.082;18.554;2022-07-29T03:07:51;98700.0;;;17.23;65.57
23361;BME280;11852;50.082;18.554;2022-07-29T03:08:52;98698.0;;;17.17;65.56
23361;BME280;11852;50.082;18.554;2022-07-29T03:09:57;98695.49;;;17.17;65.39
23361;BME280;11852;50.082;18.554;2022-07-29T03:11:01;98694.0;;;17.15;65.49
23361;BME280;11852;50.082;18.554;2022-07-29T03:12:06;98690.5;;;17.13;65.54
23361;BME280;11852;50.082;18.554;2022-07-29T03:13:11;98693.01;;;17.18;65.18
23361;BME280;11852;50.082;18.554;2022-07-29T03:14:16;98693.01;;;17.16;65.18
23361;BME280;11852;50.082;18.554;2022-07-29T03:15:19;98694.5;;;17.13;65.33
23361;BME280;11852;50.082;18.554;2022-07-29T03:16:24;98694.99;;;17.1;65.25
23361;BME280;11852;50.082;18.554;2022-07-29T03:17:29;98697.5;;;17.13;65.38
23361;BME280;11852;50.082;18.554;2022-07-29T03:18:34;98695.49;;;17.15;65.11
23361;BME280;11852;50.082;18.554;2022-07-29T03:19:38;98697.0;;;17.17;65.09
23361;BME280;11852;50.082;18.554;2022-07-29T03:20:43;98700.0;;;17.16;65.0
23361;BME280;11852;50.082;18.554;2022-07-29T03:21:48;98699.0;;;17.17;65.02
23361;BME280;11852;50.082;18.554;2022-07-29T03:22:53;98699.0;;;17.16;64.85
23361;BME280;11852;50.082;18.554;2022-07-29T03:23:58;98702.0;;;17.17;64.76
23361;BME280;11852;50.082;18.554;2022-07-29T03:25:07;98698.0;;;17.16;64.38
23361;BME280;11852;50.082;18.554;2022-07-29T03:26:12;98700.5;;;17.17;64.54
23361;BME280;11852;50.082;18.554;2022-07-29T03:27:18;98697.5;;;17.15;64.57
23361;BME280;11852;50.082;18.554;2022-07-29T03:28:24;98700.0;;;17.17;64.6
23361;BME280;11852;50.082;18.554;2022-07-29T03:29:29;98697.0;;;17.19;64.43
23361;BME280;11852;50.082;18.554;2022-07-29T03:30:34;98695.49;;;17.16;64.51
23361;BME280;11852;50.082;18.554;2022-07-29T03:31:39;98696.5;;;17.14;64.74
23361;BME280;11852;50.082;18.554;2022-07-29T03:32:43;98696.0;;;17.12;64.74
23361;BME280;11852;50.082;18.554;2022-07-29T03:33:49;98694.99;;;17.13;64.89
23361;BME280;11852;50.082;18.554;2022-07-29T03:34:54;98698.0;;;17.09;65.24
23361;BME280;11852;50.082;18.554;2022-07-29T03:35:59;98701.0;;;17.08;64.86
23361;BME280;11852;50.082;18.554;2022-07-29T03:37:05;98699.0;;;17.07;64.99
23361;BME280;11852;50.082;18.554;2022-07-29T03:38:09;98699.5;;;17.1;65.0
23361;BME280;11852;50.082;18.554;2022-07-29T03:39:18;98701.0;;;17.1;64.78
23361;BME280;11852;50.082;18.554;2022-07-29T03:40:30;98704.51;;;17.08;64.76
23361;BME280;11852;50.082;18.554;2022-07-29T03:41:37;98705.51;;;17.17;64.39
23361;BME280;11852;50.082;18.554;2022-07-29T03:42:42;98709.5;;;17.14;64.35
23361;BME280;11852;50.082;18.554;2022-07-29T03:43:48;98711.5;;;17.13;64.4
23361;BME280;11852;50.082;18.554;2022-07-29T03:44:53;98710.0;;;17.17;64.18
23361;BME280;11852;50.082;18.554;2022-07-29T03:46:02;98711.0;;;17.19;64.07
23361;BME280;11852;50.082;18.554;2022-07-29T03:47:04;98713.0;;;17.19;64.05
23361;BME280;11852;50.082;18.554;2022-07-29T03:48:09;98716.0;;;17.14;64.22
23361;BME280;11852;50.082;18.554;2022-07-29T03:49:12;98713.5;;;17.17;63.98
23361;BME280;11852;50.082;18.554;2022-07-29T03:50:17;98717.01;;;17.15;63.69
23361;BME280;11852;50.082;18.554;2022-07-29T03:51:23;98717.5;;;17.12;63.79
23361;BME280;11852;50.082;18.554;2022-07-29T03:52:28;98718.5;;;17.17;63.69
23361;BME280;11852;50.082;18.554;2022-07-29T03:53:32;98718.99;;;17.21;63.69
23361;BME280;11852;50.082;18.554;2022-07-29T03:54:38;98718.0;;;17.26;63.51
23361;BME280;11852;50.082;18.554;2022-07-29T03:55:44;98718.99;;;17.3;63.37
23361;BME280;11852;50.082;18.554;2022-07-29T03:56:48;98722.5;;;17.3;63.28
23361;BME280;11852;50.082;18.554;2022-07-29T03:57:53;98718.99;;;17.35;63.24
23361;BME280;11852;50.082;18.554;2022-07-29T03:59:02;98718.99;;;17.34;63.11
23361;BME280;11852;50.082;18.554;2022-07-29T04:00:05;98717.01;;;17.4;63.09
23361;BME280;11852;50.082;18.554;2022-07-29T04:01:10;98718.5;;;17.36;63.22
23361;BME280;11852;50.082;18.554;2022-07-29T04:02:16;98718.99;;;17.39;63.29
23361;BME280;11852;50.082;18.554;2022-07-29T04:03:22;98719.5;;;17.36;63.64
23361;BME280;11852;50.082;18.554;2022-07-29T04:04:27;98717.5;;;17.33;63.7
23361;BME280;11852;50.082;18.554;2022-07-29T04:05:31;98715.5;;;17.33;63.79
23361;BME280;11852;50.082;18.554;2022-07-29T04:06:42;98715.0;;;17.39;63.68
23361;BME280;11852;50.082;18.554;2022-07-29T04:07:47;98714.0;;;17.32;63.94
23361;BME280;11852;50.082;18.554;2022-07-29T04:08:48;98711.5;;;17.33;63.93
23361;BME280;11852;50.082;18.554;2022-07-29T04:09:57;98711.0;;;17.33;63.78
23361;BME280;11852;50.082;18.554;2022-07-29T04:10:59;98709.5;;;17.37;63.79
23361;BME280;11852;50.082;18.554;2022-07-29T04:12:03;98705.5;;;17.31;64.04
23361;BME280;11852;50.082;18.554;2022-07-29T04:13:08;98700.5;;;17.28;63.69
23361;BME280;11852;50.082;18.554;2022-07-29T04:14:12;98700.5;;;17.19;63.69
23361;BME280;11852;50.082;18.554;2022-07-29T04:15:22;98699.5;;;17.22;63.58
23361;BME280;11852;50.082;18.554;2022-07-29T04:16:27;98694.0;;;17.19;63.94
23361;BME280;11852;50.082;18.554;2022-07-29T04:17:32;98694.5;;;17.23;63.85
23361;BME280;11852;50.082;18.554;2022-07-29T04:18:38;98690.0;;;17.19;63.85
23361;BME280;11852;50.082;18.554;2022-07-29T04:19:42;98687.5;;;17.16;63.88
23361;BME280;11852;50.082;18.554;2022-07-29T04:20:47;98687.0;;;17.13;63.78
23361;BME280;11852;50.082;18.554;2022-07-29T04:21:52;98685.0;;;17.13;63.92
23361;BME280;11852;50.082;18.554;2022-07-29T04:22:56;98684.0;;;17.06;64.29
23361;BME280;11852;50.082;18.554;2022-07-29T04:24:01;98684.0;;;17.15;63.79
23361;BME280;11852;50.082;18.554;2022-07-29T04:25:06;98682.49;;;17.11;64.0
23361;BME280;11852;50.082;18.554;2022-07-29T04:26:11;98681.5;;;17.11;64.04
23361;BME280;11852;50.082;18.554;2022-07-29T04:27:16;98682.0;;;17.13;64.12
23361;BME280;11852;50.082;18.554;2022-07-29T04:28:21;98680.0;;;17.11;64.39
23361;BME280;11852;50.082;18.554;2022-07-29T04:29:30;98684.5;;;17.16;64.02
23361;BME280;11852;50.082;18.554;2022-07-29T04:30:35;98679.51;;;17.12;64.14
23361;BME280;11852;50.082;18.554;2022-07-29T04:31:40;98684.5;;;17.14;64.17
23361;BME280;11852;50.082;18.554;2022-07-29T04:32:46;98685.5;;;17.17;64.04
23361;BME280;11852;50.082;18.554;2022-07-29T04:33:56;98687.0;;;17.17;63.99
23361;BME280;11852;50.082;18.554;2022-07-29T04:35:01;98687.0;;;17.19;63.99
23361;BME280;11852;50.082;18.554;2022-07-29T04:36:05;98692.51;;;17.24;63.71
23361;BME280;11852;50.082;18.554;2022-07-29T04:37:11;98692.01;;;17.23;63.9
23361;BME280;11852;50.082;18.554;2022-07-29T04:38:16;98691.0;;;17.32;63.91
23361;BME280;11852;50.082;18.554;2022-07-29T04:39:21;98695.0;;;17.3;64.36
23361;BME280;11852;50.082;18.554;2022-07-29T04:40:25;98696.0;;;17.33;64.22
23361;BME280;11852;50.082;18.554;2022-07-29T04:41:31;98700.0;;;17.33;64.17
23361;BME280;11852;50.082;18.554;2022-07-29T04:42:36;98699.5;;;17.4;63.79
23361;BME280;11852;50.082;18.554;2022-07-29T04:43:41;98700.0;;;17.38;63.58
23361;BME280;11852;50.082;18.554;2022-07-29T04:44:45;98701.5;;;17.38;63.63
23361;BME280;11852;50.082;18.554;2022-07-29T04:45:51;98702.5;;;17.42;63.6
23361;BME280;11852;50.082;18.554;2022-07-29T04:46:56;98700.0;;;17.45;63.71
23361;BME280;11852;50.082;18.554;2022-07-29T04:48:00;98702.5;;;17.49;63.88
23361;BME280;11852;50.082;18.554;2022-07-29T04:49:05;98699.5;;;17.45;63.92
23361;BME280;11852;50.082;18.554;2022-07-29T04:50:10;98701.0;;;17.49;63.93
23361;BME280;11852;50.082;18.554;2022-07-29T04:51:15;98698.0;;;17.47;64.26
23361;BME280;11852;50.082;18.554;2022-07-29T04:52:20;98696.0;;;17.42;63.74
23361;BME280;11852;50.082;18.554;2022-07-29T04:53:25;98697.0;;;17.5;63.61
23361;BME280;11852;50.082;18.554;2022-07-29T04:54:31;98696.0;;;17.53;63.56
23361;BME280;11852;50.082;18.554;2022-07-29T04:55:36;98697.0;;;17.57;63.33
23361;BME280;11852;50.082;18.554;2022-07-29T04:56:41;98700.5;;;17.59;63.41
23361;BME280;11852;50.082;18.554;2022-07-29T04:57:46;98700.5;;;17.64;63.39
23361;BME280;11852;50.082;18.554;2022-07-29T04:58:52;98704.5;;;17.64;63.36
23361;BME280;11852;50.082;18.554;2022-07-29T04:59:58;98703.0;;;17.65;63.42
23361;BME280;11852;50.082;18.554;2022-07-29T05:01:04;98705.0;;;17.72;63.61
23361;BME280;11852;50.082;18.554;2022-07-29T05:02:09;98702.5;;;17.74;63.66
23361;BME280;11852;50.082;18.554;2022-07-29T05:03:14;98706.0;;;17.76;63.67
23361;BME280;11852;50.082;18.554;2022-07-29T05:04:18;98706.0;;;17.83;63.38
23361;BME280;11852;50.082;18.554;2022-07-29T05:05:23;98709.5;;;17.89;63.5
23361;BME280;11852;50.082;18.554;2022-07-29T05:06:29;98707.99;;;17.8;63.64
23361;BME280;11852;50.082;18.554;2022-07-29T05:07:37;98709.0;;;17.81;63.94
23361;BME280;11852;50.082;18.554;2022-07-29T05:08:38;98707.0;;;17.83;63.88
23361;BME280;11852;50.082;18.554;2022-07-29T05:09:43;98707.5;;;17.85;63.72
23361;BME280;11852;50.082;18.554;2022-07-29T05:10:47;98707.5;;;17.87;63.81
23361;BME280;11852;50.082;18.554;2022-07-29T05:11:52;98706.0;;;17.98;63.24
23361;BME280;11852;50.082;18.554;2022-07-29T05:12:56;98707.0;;;18.01;63.03
23361;BME280;11852;50.082;18.554;2022-07-29T05:14:01;98706.5;;;18.02;63.11
23361;BME280;11852;50.082;18.554;2022-07-29T05:15:07;98706.0;;;18.03;63.14
23361;BME280;11852;50.082;18.554;2022-07-29T05:16:12;98705.5;;;18.05;63.17
23361;BME280;11852;50.082;18.554;2022-07-29T05:17:16;98706.5;;;18.07;63.24
23361;BME280;11852;50.082;18.554;2022-07-29T05:18:21;98706.0;;;18.07;63.38
23361;BME280;11852;50.082;18.554;2022-07-29T05:19:26;98706.0;;;18.08;63.21
23361;BME280;11852;50.082;18.554;2022-07-29T05:20:31;98706.5;;;18.1;62.7
23361;BME280;11852;50.082;18.554;2022-07-29T05:21:36;98703.0;;;18.1;62.49
23361;BME280;11852;50.082;18.554;2022-07-29T05:22:41;98704.51;;;18.1;62.86
23361;BME280;11852;50.082;18.554;2022-07-29T05:23:46;98704.51;;;18.1;62.86
23361;BME280;11852;50.082;18.554;2022-07-29T05:24:51;98702.5;;;18.12;62.96
23361;BME280;11852;50.082;18.554;2022-07-29T05:25:57;98702.0;;;18.13;62.93
23361;BME280;11852;50.082;18.554;2022-07-29T05:27:02;98696.5;;;18.22;62.89
23361;BME280;11852;50.082;18.554;2022-07-29T05:28:07;98692.5;;;18.34;62.69
23361;BME280;11852;50.082;18.554;2022-07-29T05:29:12;98694.0;;;18.38;62.42
23361;BME280;11852;50.082;18.554;2022-07-29T05:30:17;98689.5;;;18.33;62.97
23361;BME280;11852;50.082;18.554;2022-07-29T05:31:22;98692.5;;;18.4;62.69
23361;BME280;11852;50.082;18.554;2022-07-29T05:32:32;98689.0;;;18.44;62.87
23361;BME280;11852;50.082;18.554;2022-07-29T05:33:37;98692.5;;;18.44;62.67
23361;BME280;11852;50.082;18.554;2022-07-29T05:34:45;98690.5;;;18.45;62.61
23361;BME280;11852;50.082;18.554;2022-07-29T05:35:47;98692.0;;;18.47;62.56
23361;BME280;11852;50.082;18.554;2022-07-29T05:36:52;98692.5;;;18.48;62.64
23361;BME280;11852;50.082;18.554;2022-07-29T05:37:57;98692.0;;;18.5;62.69
23361;BME280;11852;50.082;18.554;2022-07-29T05:39:02;98691.5;;;18.51;62.65
23361;BME280;11852;50.082;18.554;2022-07-29T05:40:07;98691.0;;;18.51;62.36
23361;BME280;11852;50.082;18.554;2022-07-29T05:41:12;98690.5;;;18.6;62.27
23361;BME280;11852;50.082;18.554;2022-07-29T05:42:16;98688.5;;;18.67;62.17
23361;BME280;11852;50.082;18.554;2022-07-29T05:43:21;98685.5;;;18.72;62.58
23361;BME280;11852;50.082;18.554;2022-07-29T05:44:30;98684.5;;;18.75;62.63
23361;BME280;11852;50.082;18.554;2022-07-29T05:45:31;98687.5;;;18.8;62.53
23361;BME280;11852;50.082;18.554;2022-07-29T05:46:36;98685.5;;;18.74;62.94
23361;BME280;11852;50.082;18.554;2022-07-29T05:47:41;98684.0;;;18.82;62.41
23361;BME280;11852;50.082;18.554;2022-07-29T05:48:46;98686.5;;;18.81;62.61
23361;BME280;11852;50.082;18.554;2022-07-29T05:49:51;98683.5;;;18.88;62.09
23361;BME280;11852;50.082;18.554;2022-07-29T05:50:56;98685.0;;;18.89;62.12
23361;BME280;11852;50.082;18.554;2022-07-29T05:52:05;98684.0;;;18.83;62.12
23361;BME280;11852;50.082;18.554;2022-07-29T05:53:12;98683.0;;;18.9;62.05
23361;BME280;11852;50.082;18.554;2022-07-29T05:54:16;98681.0;;;18.92;61.99
23361;BME280;11852;50.082;18.554;2022-07-29T05:55:22;98682.0;;;18.93;62.03
23361;BME280;11852;50.082;18.554;2022-07-29T05:56:30;98682.5;;;18.95;62.08
23361;BME280;11852;50.082;18.554;2022-07-29T05:57:31;98684.0;;;18.97;61.77
23361;BME280;11852;50.082;18.554;2022-07-29T05:58:36;98687.0;;;18.99;61.83
23361;BME280;11852;50.082;18.554;2022-07-29T05:59:40;98687.5;;;18.99;61.76
23361;BME280;11852;50.082;18.554;2022-07-29T06:00:46;98688.5;;;19.01;61.88
23361;BME280;11852;50.082;18.554;2022-07-29T06:01:51;98690.5;;;19.02;62.13
23361;BME280;11852;50.082;18.554;2022-07-29T06:02:56;98693.0;;;19.03;62.03